createdAt,value
2023-03-07T00:00:07.719Z,70.48
2023-03-07T00:02:54.536Z,71.08
2023-03-07T00:05:21.436Z,70.90
2023-03-07T00:07:48.396Z,70.90
2023-03-07T00:10:15.297Z,71.64
2023-03-07T00:12:42.567Z,71.57
2023-03-07T00:15:09.827Z,71.57
2023-03-07T00:17:37.389Z,71.97
2023-03-07T00:20:06.711Z,71.71
2023-03-07T00:22:33.938Z,72.51
2023-03-07T00:25:00.933Z,72.56
2023-03-07T00:27:29.080Z,73.03
2023-03-07T00:29:55.999Z,73.22
2023-03-07T00:32:23.042Z,73.48
2023-03-07T00:34:49.879Z,74.01
2023-03-07T00:37:16.789Z,74.20
2023-03-07T00:39:43.765Z,74.01
2023-03-07T00:42:10.673Z,74.26
2023-03-07T00:44:37.452Z,74.53
2023-03-07T00:47:04.331Z,74.67
2023-03-07T00:49:31.401Z,74.90
2023-03-07T00:51:58.307Z,75.43
2023-03-07T00:54:25.743Z,75.35
2023-03-07T00:56:52.533Z,75.47
2023-03-07T00:59:19.385Z,75.51
2023-03-07T01:01:46.420Z,75.77
2023-03-07T01:04:13.591Z,75.85
2023-03-07T01:06:40.557Z,75.93
2023-03-07T01:09:09.077Z,75.91
2023-03-07T01:11:36.461Z,76.19
2023-03-07T01:14:04.561Z,76.05
2023-03-07T01:16:37.498Z,76.35
2023-03-07T01:19:07.097Z,76.48
2023-03-07T01:21:38.548Z,76.41
2023-03-07T01:24:06.499Z,76.57
2023-03-07T01:26:33.899Z,77.50
2023-03-07T01:29:01.940Z,77.73
2023-03-07T01:31:31.950Z,78.00
2023-03-07T01:34:01.570Z,77.84
2023-03-07T01:36:30.896Z,77.47
2023-03-07T01:39:06.044Z,77.66
2023-03-07T01:41:35.332Z,77.78
2023-03-07T01:44:05.214Z,77.85
2023-03-07T01:46:36.899Z,78.04
2023-03-07T01:49:12.240Z,77.66
2023-03-07T01:51:41.341Z,77.83
2023-03-07T01:54:08.985Z,77.62
2023-03-07T01:56:36.916Z,77.57
2023-03-07T01:59:04.105Z,77.64
2023-03-07T02:01:31.045Z,77.95
2023-03-07T02:04:01.576Z,77.94
2023-03-07T02:06:30.877Z,77.98
2023-03-07T02:08:58.058Z,78.17
2023-03-07T02:11:25.568Z,78.00
2023-03-07T02:13:52.665Z,77.98
2023-03-07T02:16:19.999Z,78.23
2023-03-07T02:18:48.554Z,78.05
2023-03-07T02:21:15.234Z,78.32
2023-03-07T02:23:41.904Z,78.29
2023-03-07T02:26:27.443Z,78.25
2023-03-07T02:28:54.749Z,78.49
2023-03-07T02:31:21.985Z,78.16
2023-03-07T02:33:49.357Z,78.54
2023-03-07T02:36:21.960Z,78.67
2023-03-07T02:38:56.859Z,78.54
2023-03-07T02:41:27.844Z,78.57
2023-03-07T02:43:55.838Z,78.71
2023-03-07T02:46:22.677Z,78.63
2023-03-07T02:48:49.581Z,78.56
2023-03-07T02:51:16.977Z,78.93
2023-03-07T02:53:45.281Z,78.72
2023-03-07T02:56:12.349Z,78.87
2023-03-07T02:58:39.063Z,78.54
2023-03-07T03:01:05.843Z,78.87
2023-03-07T03:03:32.634Z,78.50
2023-03-07T03:05:59.429Z,78.93
2023-03-07T03:08:26.247Z,78.54
2023-03-07T03:10:54.112Z,78.42
2023-03-07T03:13:22.274Z,78.61
2023-03-07T03:15:49.523Z,79.15
2023-03-07T03:18:16.991Z,79.29
2023-03-07T03:20:44.035Z,78.85
2023-03-07T03:23:11.048Z,78.87
2023-03-07T03:25:40.090Z,78.97
2023-03-07T03:28:08.071Z,79.13
2023-03-07T03:30:35.542Z,78.92
2023-03-07T03:33:02.951Z,79.22
2023-03-07T03:35:30.593Z,79.58
2023-03-07T03:37:57.514Z,79.49
2023-03-07T03:40:25.073Z,79.50
2023-03-07T03:42:52.770Z,79.46
2023-03-07T03:45:20.589Z,79.51
2023-03-07T03:47:47.925Z,79.33
2023-03-07T03:50:14.866Z,79.47
2023-03-07T03:52:44.560Z,79.37
2023-03-07T03:55:11.928Z,79.36
2023-03-07T03:57:38.710Z,80.01
2023-03-07T04:00:08.380Z,79.91
2023-03-07T04:02:39.353Z,79.99
2023-03-07T04:05:07.092Z,79.92
2023-03-07T04:07:33.923Z,79.80
2023-03-07T04:10:01.058Z,79.71
2023-03-07T04:12:28.258Z,79.92
2023-03-07T04:14:55.124Z,79.88
2023-03-07T04:17:23.725Z,79.96
2023-03-07T04:19:50.509Z,79.96
2023-03-07T04:22:17.541Z,79.97
2023-03-07T04:24:44.725Z,80.21
2023-03-07T04:27:11.776Z,79.97
2023-03-07T04:29:38.734Z,80.25
2023-03-07T04:32:19.202Z,80.19
2023-03-07T04:34:46.125Z,80.34
2023-03-07T04:37:13.284Z,80.20
2023-03-07T04:39:40.248Z,80.62
2023-03-07T04:42:08.808Z,80.59
2023-03-07T04:44:36.915Z,80.56
2023-03-07T04:47:03.911Z,80.57
2023-03-07T04:49:33.471Z,80.77
2023-03-07T04:52:00.805Z,80.93
2023-03-07T04:54:27.750Z,80.92
2023-03-07T04:56:55.455Z,80.87
2023-03-07T04:59:22.488Z,80.67
2023-03-07T05:01:49.628Z,80.60
2023-03-07T05:04:16.824Z,80.57
2023-03-07T05:06:44.274Z,80.44
2023-03-07T05:09:12.020Z,80.89
2023-03-07T05:11:39.193Z,80.71
2023-03-07T05:14:07.436Z,80.63
2023-03-07T05:16:34.283Z,80.74
2023-03-07T05:19:01.200Z,80.44
2023-03-07T05:21:30.298Z,80.27
2023-03-07T05:23:57.754Z,80.45
2023-03-07T05:26:25.025Z,80.23
2023-03-07T05:28:52.290Z,80.83
2023-03-07T05:31:19.191Z,81.15
2023-03-07T05:33:46.624Z,80.90
2023-03-07T05:36:14.117Z,80.70
2023-03-07T05:38:41.270Z,81.09
2023-03-07T05:41:08.399Z,81.32
2023-03-07T05:43:35.589Z,81.04
2023-03-07T05:46:02.709Z,80.68
2023-03-07T05:48:29.849Z,80.68
2023-03-07T05:51:00.737Z,80.85
2023-03-07T05:53:27.994Z,80.97
2023-03-07T05:55:55.768Z,80.90
2023-03-07T05:58:23.207Z,81.08
2023-03-07T06:00:50.177Z,81.21
2023-03-07T06:03:17.374Z,80.87
2023-03-07T06:05:44.386Z,81.13
2023-03-07T06:08:11.271Z,81.32
2023-03-07T06:10:39.718Z,81.72
2023-03-07T06:13:06.876Z,81.77
2023-03-07T06:15:33.722Z,81.71
2023-03-07T06:18:03.752Z,81.89
2023-03-07T06:20:30.593Z,81.60
2023-03-07T06:22:57.649Z,81.65
2023-03-07T06:25:24.904Z,81.95
2023-03-07T06:27:52.326Z,81.92
2023-03-07T06:30:19.529Z,81.54
2023-03-07T06:32:46.368Z,81.39
2023-03-07T06:35:13.669Z,81.64
2023-03-07T06:37:40.797Z,82.08
2023-03-07T06:40:09.064Z,81.65
2023-03-07T06:42:36.498Z,81.75
2023-03-07T06:45:04.399Z,81.68
2023-03-07T06:47:31.557Z,81.07
2023-03-07T06:49:59.129Z,81.16
2023-03-07T06:52:26.186Z,81.19
2023-03-07T06:54:53.226Z,80.97
2023-03-07T06:57:20.297Z,80.76
2023-03-07T06:59:47.794Z,80.36
2023-03-07T07:02:15.020Z,79.96
2023-03-07T07:04:41.979Z,80.42
2023-03-07T07:07:09.205Z,80.10
2023-03-07T07:09:36.358Z,80.12
2023-03-07T07:12:05.389Z,80.12
2023-03-07T07:14:33.932Z,79.73
2023-03-07T07:17:01.371Z,79.94
2023-03-07T07:19:28.467Z,79.47
2023-03-07T07:21:56.665Z,79.96
2023-03-07T07:24:23.598Z,79.58
2023-03-07T07:26:51.582Z,79.56
2023-03-07T07:29:18.638Z,78.97
2023-03-07T07:31:45.973Z,79.36
2023-03-07T07:34:13.271Z,79.58
2023-03-07T07:36:40.151Z,79.73
2023-03-07T07:39:07.475Z,79.99
2023-03-07T07:41:36.039Z,79.82
2023-03-07T07:44:03.228Z,79.67
2023-03-07T07:46:42.453Z,79.37
2023-03-07T07:49:09.454Z,79.10
2023-03-07T07:51:36.336Z,78.53
2023-03-07T07:54:03.246Z,77.16
2023-03-07T07:56:30.114Z,76.99
2023-03-07T07:58:57.082Z,77.17
2023-03-07T08:01:24.651Z,77.49
2023-03-07T08:03:51.817Z,77.77
2023-03-07T08:06:23.515Z,77.54
2023-03-07T08:08:51.261Z,77.16
2023-03-07T08:11:19.261Z,77.10
2023-03-07T08:13:46.336Z,76.85
2023-03-07T08:16:17.536Z,76.69
2023-03-07T08:18:52.064Z,76.97
2023-03-07T08:21:19.401Z,76.44
2023-03-07T08:23:46.464Z,76.13
2023-03-07T08:26:13.704Z,76.26
2023-03-07T08:28:41.479Z,75.78
2023-03-07T08:31:09.438Z,75.04
2023-03-07T08:33:37.000Z,74.58
2023-03-07T08:36:04.159Z,74.05
2023-03-07T08:38:31.604Z,74.00
2023-03-07T08:41:01.620Z,73.96
2023-03-07T08:43:28.820Z,73.90
2023-03-07T08:45:56.118Z,73.61
2023-03-07T08:48:23.835Z,73.72
2023-03-07T08:50:52.352Z,73.77
2023-03-07T08:53:20.598Z,73.82
2023-03-07T08:55:47.752Z,73.84
2023-03-07T08:58:14.802Z,73.90
2023-03-07T09:00:41.858Z,73.76
2023-03-07T09:03:08.811Z,73.65
2023-03-07T09:05:37.506Z,73.74
2023-03-07T09:08:05.672Z,73.79
2023-03-07T09:10:33.036Z,74.03
2023-03-07T09:12:59.898Z,74.15
2023-03-07T09:15:26.936Z,74.21
2023-03-07T09:17:53.995Z,74.26
2023-03-07T09:20:20.838Z,74.49
2023-03-07T09:22:47.798Z,74.78
2023-03-07T09:25:14.747Z,75.04
2023-03-07T09:27:44.968Z,75.12
2023-03-07T09:30:13.148Z,75.24
2023-03-07T09:32:40.394Z,75.26
2023-03-07T09:35:07.881Z,75.37
2023-03-07T09:37:34.826Z,75.47
2023-03-07T09:40:05.252Z,75.37
2023-03-07T09:42:35.373Z,74.97
2023-03-07T09:45:34.875Z,74.65
2023-03-07T09:48:33.953Z,74.39
2023-03-07T09:51:11.346Z,74.26
2023-03-07T09:53:41.054Z,74.61
2023-03-07T09:56:12.100Z,74.93
2023-03-07T09:58:42.941Z,74.88
2023-03-07T10:01:11.936Z,74.80
2023-03-07T10:03:58.117Z,74.69
2023-03-07T10:06:35.334Z,74.85
2023-03-07T10:09:04.721Z,74.91
2023-03-07T10:11:45.035Z,75.00
2023-03-07T10:14:24.350Z,74.60
2023-03-07T10:16:54.654Z,74.48
2023-03-07T10:19:24.575Z,74.31
2023-03-07T10:21:54.780Z,74.13
2023-03-07T10:24:21.833Z,73.97
2023-03-07T10:27:00.716Z,73.99
2023-03-07T10:29:29.444Z,74.20
2023-03-07T10:32:03.752Z,74.08
2023-03-07T10:34:32.602Z,73.86
2023-03-07T10:37:18.175Z,73.68
2023-03-07T10:39:55.023Z,73.36
2023-03-07T10:42:22.895Z,73.53
2023-03-07T10:44:52.902Z,73.48
2023-03-07T10:47:21.691Z,73.35
2023-03-07T10:49:50.188Z,73.33
2023-03-07T10:52:28.875Z,73.71
2023-03-07T10:55:15.598Z,73.97
2023-03-07T10:57:42.444Z,74.36
2023-03-07T11:00:16.738Z,74.52
2023-03-07T11:02:44.880Z,74.29
2023-03-07T11:05:25.372Z,74.40
2023-03-07T11:07:52.150Z,74.68
2023-03-07T11:10:36.069Z,74.64
2023-03-07T11:13:33.558Z,74.79
2023-03-07T11:16:15.779Z,74.63
2023-03-07T11:18:44.192Z,74.91
2023-03-07T11:21:31.254Z,75.19
2023-03-07T11:24:02.607Z,74.73
2023-03-07T11:26:31.021Z,74.48
2023-03-07T11:29:05.083Z,74.05
2023-03-07T11:31:34.988Z,73.28
2023-03-07T11:34:13.813Z,73.16
2023-03-07T11:36:43.621Z,73.27
2023-03-07T11:39:16.145Z,74.39
2023-03-07T11:41:47.049Z,73.55
2023-03-07T11:44:19.638Z,72.77
2023-03-07T11:46:55.376Z,71.84
2023-03-07T11:49:31.757Z,70.73
2023-03-07T11:52:17.528Z,69.95
2023-03-07T11:54:44.581Z,69.70
2023-03-07T11:57:18.899Z,70.09
2023-03-07T12:00:18.292Z,70.01
2023-03-07T12:02:45.153Z,70.44
2023-03-07T12:05:32.498Z,70.55
2023-03-07T12:08:05.317Z,70.61
2023-03-07T12:10:34.793Z,70.81
2023-03-07T12:13:10.844Z,70.85
2023-03-07T12:15:37.591Z,70.37
2023-03-07T12:18:30.586Z,69.38
2023-03-07T12:21:10.118Z,68.76
2023-03-07T12:23:48.221Z,69.16
2023-03-07T12:26:27.476Z,69.08
2023-03-07T12:28:57.504Z,69.44
2023-03-07T12:31:28.484Z,69.40
2023-03-07T12:34:13.707Z,70.60
2023-03-07T12:36:44.371Z,70.76
2023-03-07T12:39:11.200Z,70.48
2023-03-07T12:41:43.060Z,70.31
2023-03-07T12:44:14.814Z,69.26
2023-03-07T12:46:47.293Z,69.21
2023-03-07T12:49:22.024Z,69.87
2023-03-07T12:51:51.988Z,69.38
2023-03-07T12:54:29.982Z,69.04
2023-03-07T12:57:06.104Z,68.95
2023-03-07T12:59:34.794Z,68.38
2023-03-07T13:02:03.993Z,68.38
2023-03-07T13:04:33.974Z,70.35
2023-03-07T13:07:06.595Z,71.13
2023-03-07T13:09:34.051Z,70.22
2023-03-07T13:12:16.080Z,69.67
2023-03-07T13:14:44.031Z,69.36
2023-03-07T13:17:11.607Z,69.94
2023-03-07T13:19:38.820Z,69.21
2023-03-07T13:22:14.493Z,69.68
2023-03-07T13:24:42.334Z,69.67
2023-03-07T13:27:16.582Z,70.14
2023-03-07T13:30:01.901Z,69.70
2023-03-07T13:32:47.512Z,69.23
2023-03-07T13:35:35.343Z,68.19
2023-03-07T13:38:03.582Z,68.95
2023-03-07T13:40:43.069Z,68.67
2023-03-07T13:43:22.006Z,69.08
2023-03-07T13:45:49.119Z,68.28
2023-03-07T13:48:27.943Z,69.28
2023-03-07T13:50:54.740Z,68.79
2023-03-07T13:53:22.215Z,69.59
2023-03-07T13:55:54.046Z,68.66
2023-03-07T13:58:25.225Z,68.43
2023-03-07T14:00:57.746Z,69.23
2023-03-07T14:03:27.995Z,68.95
2023-03-07T14:06:00.154Z,69.02
2023-03-07T14:08:29.479Z,68.83
2023-03-07T14:10:56.311Z,68.45
2023-03-07T14:13:58.798Z,68.17
2023-03-07T14:16:46.607Z,67.89
2023-03-07T14:19:16.126Z,68.19
2023-03-07T14:21:51.741Z,67.79
2023-03-07T14:24:22.731Z,67.60
2023-03-07T14:26:52.612Z,67.34
2023-03-07T14:29:21.826Z,67.21
2023-03-07T14:31:52.477Z,67.56
2023-03-07T14:34:26.046Z,67.81
2023-03-07T14:36:55.032Z,67.44
2023-03-07T14:39:22.457Z,67.57
2023-03-07T14:41:52.343Z,67.40
2023-03-07T14:44:28.155Z,66.77
2023-03-07T14:46:54.871Z,66.90
2023-03-07T14:49:24.659Z,66.96
2023-03-07T14:51:51.611Z,67.32
2023-03-07T14:54:20.793Z,67.53
2023-03-07T14:56:50.833Z,67.71
2023-03-07T14:59:28.038Z,67.86
2023-03-07T15:01:56.051Z,67.72
2023-03-07T15:04:30.338Z,67.95
2023-03-07T15:06:58.629Z,68.13
2023-03-07T15:09:25.772Z,68.36
2023-03-07T15:12:04.932Z,68.52
2023-03-07T15:14:51.915Z,68.86
2023-03-07T15:17:36.175Z,68.91
2023-03-07T15:20:15.973Z,68.95
2023-03-07T15:22:42.970Z,68.52
2023-03-07T15:25:17.833Z,68.99
2023-03-07T15:27:44.799Z,69.40
2023-03-07T15:30:32.188Z,69.56
2023-03-07T15:33:03.368Z,69.81
2023-03-07T15:35:30.312Z,68.69
2023-03-07T15:37:59.533Z,69.14
2023-03-07T15:40:29.387Z,69.08
2023-03-07T15:43:04.318Z,68.79
2023-03-07T15:45:33.310Z,68.53
2023-03-07T15:48:02.073Z,69.54
2023-03-07T15:50:29.292Z,69.73
2023-03-07T15:53:01.858Z,69.38
2023-03-07T15:55:28.774Z,70.00
2023-03-07T15:57:57.765Z,70.17
2023-03-07T16:00:30.959Z,70.41
2023-03-07T16:03:21.250Z,69.84
2023-03-07T16:05:49.055Z,70.10
2023-03-07T16:08:16.787Z,69.89
2023-03-07T16:10:51.907Z,70.07
2023-03-07T16:13:20.600Z,69.71
2023-03-07T16:16:01.369Z,70.00
2023-03-07T16:18:29.650Z,70.26
2023-03-07T16:20:57.215Z,70.43
2023-03-07T16:23:24.270Z,70.57
2023-03-07T16:25:51.172Z,70.85
2023-03-07T16:28:18.039Z,71.24
2023-03-07T16:30:45.249Z,71.57
2023-03-07T16:33:13.397Z,71.94
2023-03-07T16:35:40.511Z,72.34
2023-03-07T16:38:08.159Z,72.70
2023-03-07T16:40:39.977Z,72.65
2023-03-07T16:43:21.772Z,72.95
2023-03-07T16:45:48.943Z,73.10
2023-03-07T16:48:16.257Z,73.41
2023-03-07T16:50:43.212Z,73.84
2023-03-07T16:53:10.387Z,73.97
2023-03-07T16:55:37.906Z,74.34
2023-03-07T16:58:05.518Z,74.86
2023-03-07T17:00:32.520Z,74.92
2023-03-07T17:03:00.035Z,74.93
2023-03-07T17:05:27.817Z,75.28
2023-03-07T17:07:56.290Z,75.30
2023-03-07T17:10:25.900Z,75.51
2023-03-07T17:12:54.559Z,75.32
2023-03-07T17:15:25.637Z,75.26
2023-03-07T17:17:52.795Z,75.07
2023-03-07T17:20:19.949Z,75.41
2023-03-07T17:22:46.906Z,75.28
2023-03-07T17:25:13.911Z,75.23
2023-03-07T17:27:42.955Z,75.29
2023-03-07T17:30:14.264Z,75.20
2023-03-07T17:32:41.413Z,75.07
2023-03-07T17:35:09.259Z,75.30
2023-03-07T17:37:36.427Z,75.17
2023-03-07T17:40:09.546Z,75.20
2023-03-07T17:42:37.242Z,75.28
2023-03-07T17:45:05.427Z,75.16
2023-03-07T17:47:32.811Z,75.35
2023-03-07T17:50:04.998Z,75.50
2023-03-07T17:52:32.517Z,75.47
2023-03-07T17:54:59.681Z,75.57
2023-03-07T17:57:27.326Z,75.59
2023-03-07T17:59:54.941Z,75.86
2023-03-07T18:02:22.145Z,75.96
2023-03-07T18:04:51.206Z,75.82
2023-03-07T18:07:19.344Z,76.01
2023-03-07T18:09:48.503Z,76.13
2023-03-07T18:12:18.665Z,75.95
2023-03-07T18:14:45.663Z,75.90
2023-03-07T18:17:12.568Z,76.10
2023-03-07T18:19:39.620Z,75.87
2023-03-07T18:22:06.588Z,75.94
2023-03-07T18:24:33.487Z,75.58
2023-03-07T18:27:00.636Z,75.53
2023-03-07T18:29:28.561Z,75.78
2023-03-07T18:31:56.062Z,75.61
2023-03-07T18:34:24.500Z,75.51
2023-03-07T18:36:52.572Z,75.65
2023-03-07T18:39:20.532Z,75.11
2023-03-07T18:41:47.606Z,75.30
2023-03-07T18:44:17.928Z,75.51
2023-03-07T18:46:44.982Z,75.73
2023-03-07T18:49:12.041Z,75.91
2023-03-07T18:51:39.288Z,76.03
2023-03-07T18:54:08.418Z,76.11
2023-03-07T18:56:35.446Z,76.14
2023-03-07T18:59:02.603Z,76.42
2023-03-07T19:01:39.252Z,76.63
2023-03-07T19:04:07.141Z,76.53
2023-03-07T19:06:40.136Z,76.57
2023-03-07T19:09:09.234Z,76.55
2023-03-07T19:11:36.395Z,76.46
2023-03-07T19:14:03.256Z,76.56
2023-03-07T19:16:30.345Z,76.96
2023-03-07T19:18:59.398Z,76.80
2023-03-07T19:21:27.376Z,76.61
2023-03-07T19:23:55.350Z,76.73
2023-03-07T19:26:22.932Z,77.21
2023-03-07T19:28:51.177Z,77.17
2023-03-07T19:31:19.921Z,76.98
2023-03-07T19:33:48.056Z,77.35
2023-03-07T19:36:17.057Z,76.88
2023-03-07T19:38:44.105Z,77.11
2023-03-07T19:41:12.398Z,77.40
2023-03-07T19:43:39.850Z,77.47
2023-03-07T19:46:08.041Z,77.70
2023-03-07T19:48:35.086Z,77.98
2023-03-07T19:51:02.236Z,77.89
2023-03-07T19:53:29.408Z,77.77
2023-03-07T19:55:57.059Z,78.00
2023-03-07T19:58:24.088Z,77.76
2023-03-07T20:00:51.013Z,78.18
2023-03-07T20:03:19.338Z,78.16
2023-03-07T20:05:50.422Z,78.23
2023-03-07T20:08:17.852Z,78.15
2023-03-07T20:10:44.776Z,78.37
2023-03-07T20:13:13.697Z,78.14
2023-03-07T20:15:42.295Z,78.47
2023-03-07T20:18:10.766Z,78.53
2023-03-07T20:20:37.673Z,78.15
2023-03-07T20:23:04.677Z,78.62
2023-03-07T20:25:31.624Z,78.74
2023-03-07T20:27:58.687Z,78.62
2023-03-07T20:30:25.625Z,78.86
2023-03-07T20:32:52.491Z,78.76
2023-03-07T20:35:19.537Z,78.93
2023-03-07T20:37:46.384Z,78.79
2023-03-07T20:40:13.327Z,78.81
2023-03-07T20:42:40.485Z,78.93
2023-03-07T20:45:07.707Z,78.98
2023-03-07T20:47:37.763Z,78.95
2023-03-07T20:50:05.224Z,79.03
2023-03-07T20:52:32.278Z,78.77
2023-03-07T20:54:59.541Z,78.91
2023-03-07T20:57:26.697Z,78.98
2023-03-07T20:59:53.857Z,78.94
2023-03-07T21:02:21.007Z,78.86
2023-03-07T21:04:49.845Z,79.14
2023-03-07T21:07:17.064Z,78.85
2023-03-07T21:09:50.174Z,79.21
2023-03-07T21:12:17.342Z,78.85
2023-03-07T21:14:44.249Z,79.06
2023-03-07T21:17:12.743Z,79.09
2023-03-07T21:19:39.588Z,79.02
2023-03-07T21:22:06.651Z,79.02
2023-03-07T21:24:33.699Z,79.09
2023-03-07T21:27:00.848Z,79.29
2023-03-07T21:29:27.802Z,79.28
2023-03-07T21:31:55.403Z,79.40
2023-03-07T21:34:22.625Z,78.86
2023-03-07T21:36:55.390Z,79.32
2023-03-07T21:39:25.434Z,79.25
2023-03-07T21:41:52.684Z,79.36
2023-03-07T21:44:19.948Z,79.20
2023-03-07T21:46:46.996Z,79.41
2023-03-07T21:49:14.053Z,79.32
2023-03-07T21:51:41.211Z,79.27
2023-03-07T21:54:08.154Z,79.17
2023-03-07T21:56:35.316Z,79.46
2023-03-07T21:59:02.256Z,79.26
2023-03-07T22:01:29.642Z,79.29
2023-03-07T22:03:57.773Z,79.22
2023-03-07T22:06:25.900Z,79.12
2023-03-07T22:08:53.557Z,79.12
2023-03-07T22:11:20.495Z,79.07
2023-03-07T22:13:47.571Z,79.15
2023-03-07T22:16:16.265Z,78.85
2023-03-07T22:18:43.393Z,78.94
2023-03-07T22:21:13.390Z,79.26
2023-03-07T22:23:40.578Z,78.99
2023-03-07T22:26:08.946Z,79.18
2023-03-07T22:28:36.587Z,79.03
2023-03-07T22:31:04.799Z,79.03
2023-03-07T22:33:32.359Z,78.94
2023-03-07T22:35:59.857Z,78.83
2023-03-07T22:38:26.873Z,79.07
2023-03-07T22:40:53.827Z,78.76
2023-03-07T22:43:20.851Z,78.76
2023-03-07T22:45:49.396Z,78.83
2023-03-07T22:48:16.419Z,78.85
2023-03-07T22:50:43.480Z,78.90
2023-03-07T22:53:10.531Z,79.09
2023-03-07T22:55:39.215Z,78.90
2023-03-07T22:58:06.277Z,78.98
2023-03-07T23:00:33.250Z,79.02
2023-03-07T23:03:00.303Z,79.04
2023-03-07T23:05:27.425Z,78.79
2023-03-07T23:07:54.489Z,78.59
2023-03-07T23:10:21.539Z,78.67
2023-03-07T23:12:49.593Z,78.69
2023-03-07T23:15:17.891Z,79.00
2023-03-07T23:17:45.355Z,78.96
2023-03-07T23:20:12.509Z,78.91
2023-03-07T23:22:40.483Z,79.10
2023-03-07T23:25:07.535Z,78.93
2023-03-07T23:27:34.604Z,79.31
2023-03-07T23:30:02.257Z,79.12
2023-03-07T23:32:29.129Z,79.07
2023-03-07T23:34:56.175Z,79.28
2023-03-07T23:37:23.210Z,79.08
2023-03-07T23:39:50.878Z,79.22
2023-03-07T23:42:19.061Z,79.56
2023-03-07T23:44:49.182Z,79.31
2023-03-07T23:47:16.449Z,79.46
2023-03-07T23:49:43.493Z,79.50
2023-03-07T23:52:10.540Z,79.30
2023-03-07T23:54:37.497Z,79.28
2023-03-07T23:57:04.487Z,79.40
2023-03-07T23:59:31.503Z,79.49
